Time;durP1;ratioP1;P1;durP2;ratioP2;P2;SDS_P1;SDS_P2;PMS_P1;PMS_P2;Temp;Humidity;BMP_temperature;BMP_pressure;BME280_temperature;BME280_humidity;BME280_pressure;Samples;Min_cycle;Max_cycle;Signal;HPM_P1;HPM_P2
2021/01/07 00:00:56;;;;;;;8.90;5.22;;;;;;;2.55;100.00;100415.03;4953344;28;20551;-77
2021/01/07 00:03:21;;;;;;;9.20;4.97;;;;;;;2.57;100.00;100420.03;4935771;28;20106;-77
2021/01/07 00:05:47;;;;;;;8.57;5.30;;;;;;;2.51;100.00;100415.94;4933376;29;20023;-77
2021/01/07 00:08:12;;;;;;;8.60;4.72;;;;;;;2.51;100.00;100407.97;4957694;28;20039;-77
2021/01/07 00:10:38;;;;;;;8.02;4.95;;;;;;;2.49;100.00;100402.19;4934606;28;20035;-77
2021/01/07 00:13:03;;;;;;;8.65;4.97;;;;;;;2.52;100.00;100401.56;4931897;28;20514;-77
2021/01/07 00:15:29;;;;;;;10.02;5.05;;;;;;;2.53;100.00;100405.81;4915786;28;20114;-77
2021/01/07 00:17:54;;;;;;;8.55;4.78;;;;;;;2.65;100.00;100404.09;4917752;29;20075;-77
2021/01/07 00:20:20;;;;;;;9.43;5.13;;;;;;;2.59;100.00;100399.25;4930081;29;20035;-77
2021/01/07 00:22:45;;;;;;;8.65;4.97;;;;;;;2.48;100.00;100397.94;4942689;28;20068;-77
2021/01/07 00:25:11;;;;;;;8.52;5.15;;;;;;;2.45;100.00;100395.91;4940335;29;20114;-77
2021/01/07 00:27:36;;;;;;;9.48;5.18;;;;;;;2.45;100.00;100393.25;4939200;29;20484;-77
2021/01/07 00:30:05;;;;;;;10.07;5.78;;;;;;;2.42;100.00;100393.88;4945884;28;20067;-77
2021/01/07 00:32:31;;;;;;;8.57;4.70;;;;;;;2.56;100.00;100397.19;4951012;29;20035;-77
2021/01/07 00:34:57;;;;;;;10.05;5.20;;;;;;;2.54;100.00;100396.72;4936681;28;20050;-76
2021/01/07 00:37:22;;;;;;;10.57;5.57;;;;;;;2.47;100.00;100391.09;4932599;28;20037;-77
2021/01/07 00:39:48;;;;;;;7.88;4.88;;;;;;;2.59;100.00;100397.38;4914850;29;20051;-76
2021/01/07 00:42:18;;;;;;;9.70;5.45;;;;;;;2.58;100.00;100395.03;4918814;29;20035;-77
2021/01/07 00:44:44;;;;;;;9.05;5.25;;;;;;;2.55;100.00;100398.31;4933057;28;20030;-76
2021/01/07 00:47:10;;;;;;;9.80;5.50;;;;;;;2.56;100.00;100390.03;4938200;29;20047;-77
2021/01/07 00:49:36;;;;;;;9.93;5.20;;;;;;;2.59;100.00;100392.03;4940085;28;20520;-77
2021/01/07 00:52:02;;;;;;;9.52;5.72;;;;;;;2.52;100.00;100388.28;4942806;23;20044;-75
2021/01/07 00:54:29;;;;;;;9.45;5.55;;;;;;;2.48;100.00;100393.44;4928265;29;20067;-74
2021/01/07 00:56:54;;;;;;;9.98;5.28;;;;;;;2.48;100.00;100388.13;4930788;29;20028;-75
2021/01/07 00:59:26;;;;;;;10.00;5.65;;;;;;;2.53;100.00;100395.16;4917856;29;20051;-75
2021/01/07 01:01:51;;;;;;;11.95;5.72;;;;;;;2.50;100.00;100390.44;4938131;29;20049;-74
2021/01/07 01:04:17;;;;;;;9.73;5.47;;;;;;;2.43;100.00;100390.13;4928038;29;20024;-75
2021/01/07 01:06:44;;;;;;;9.32;5.50;;;;;;;2.48;100.00;100390.78;4911318;29;20042;-75
2021/01/07 01:09:11;;;;;;;10.38;5.70;;;;;;;2.45;100.00;100382.63;4927769;29;20531;-75
2021/01/07 01:11:47;;;;;;;9.95;5.72;;;;;;;2.44;100.00;100381.84;4921825;29;20492;-75
2021/01/07 01:14:17;;;;;;;9.32;5.20;;;;;;;2.55;100.00;100385.03;4911785;29;20040;-75
2021/01/07 01:16:45;;;;;;;10.80;5.65;;;;;;;2.53;100.00;100379.22;4913929;29;20433;-75
2021/01/07 01:19:11;;;;;;;10.50;6.05;;;;;;;2.49;100.00;100381.72;4910186;29;20028;-75
2021/01/07 01:21:36;;;;;;;8.73;5.32;;;;;;;2.40;100.00;100386.19;4913858;29;20488;-75
2021/01/07 01:24:02;;;;;;;9.48;5.10;;;;;;;2.38;100.00;100377.75;4912170;29;20032;-75
2021/01/07 01:26:27;;;;;;;11.35;5.75;;;;;;;2.43;100.00;100374.19;4912412;29;20103;-75
2021/01/07 01:28:53;;;;;;;10.27;5.53;;;;;;;2.44;100.00;100376.53;4897004;29;20032;-74
2021/01/07 01:31:18;;;;;;;12.48;5.93;;;;;;;2.41;100.00;100379.81;4914224;29;20043;-74
2021/01/07 01:33:44;;;;;;;10.43;5.50;;;;;;;2.39;100.00;100383.84;4917710;29;20051;-75
2021/01/07 01:36:10;;;;;;;10.10;5.50;;;;;;;2.41;100.00;100377.16;4913539;29;20047;-75
2021/01/07 01:38:35;;;;;;;10.85;5.95;;;;;;;2.42;100.00;100376.06;4925844;29;20047;-74
2021/01/07 01:41:05;;;;;;;11.27;6.07;;;;;;;2.37;100.00;100373.53;4919948;29;20036;-75
2021/01/07 01:43:30;;;;;;;9.48;5.47;;;;;;;2.36;100.00;100381.81;4918418;29;20039;-75
2021/01/07 01:45:56;;;;;;;10.02;5.75;;;;;;;2.41;100.00;100384.34;4919821;29;20505;-75
2021/01/07 01:48:25;;;;;;;10.00;5.60;;;;;;;2.52;100.00;100378.44;4918857;29;20036;-76
2021/01/07 01:50:50;;;;;;;11.45;5.75;;;;;;;2.53;100.00;100384.53;4948725;29;20036;-75
2021/01/07 01:53:16;;;;;;;10.10;5.43;;;;;;;2.42;100.00;100380.59;4903024;29;20448;-75
2021/01/07 01:55:42;;;;;;;10.88;5.45;;;;;;;2.40;100.00;100375.56;4908388;29;20032;-75
2021/01/07 01:58:11;;;;;;;9.20;4.78;;;;;;;2.50;100.00;100374.50;4919476;29;20040;-75
2021/01/07 02:00:36;;;;;;;9.38;5.13;;;;;;;2.52;100.00;100380.31;4899287;29;20063;-76
2021/01/07 02:03:06;;;;;;;10.27;5.97;;;;;;;2.60;100.00;100384.88;4920151;29;20036;-76
2021/01/07 02:05:32;;;;;;;11.57;6.20;;;;;;;2.61;100.00;100373.16;4918809;29;20024;-76
2021/01/07 02:07:59;;;;;;;9.77;5.53;;;;;;;2.52;100.00;100373.13;4918573;29;20031;-75
2021/01/07 02:10:25;;;;;;;9.07;4.68;;;;;;;2.51;100.00;100381.41;4919804;29;20115;-75
2021/01/07 02:12:51;;;;;;;9.10;5.25;;;;;;;2.52;100.00;100377.66;4945208;28;20132;-75
2021/01/07 02:15:17;;;;;;;8.65;4.70;;;;;;;2.56;100.00;100375.94;4910702;29;20134;-75
2021/01/07 02:17:43;;;;;;;9.43;5.28;;;;;;;2.52;100.00;100375.00;4919223;29;20028;-75
2021/01/07 02:20:10;;;;;;;9.93;4.93;;;;;;;2.53;100.00;100373.91;4917263;29;20038;-75
2021/01/07 02:22:35;;;;;;;9.55;5.22;;;;;;;2.54;100.00;100375.47;4920108;29;20120;-75
2021/01/07 02:25:01;;;;;;;11.27;5.28;;;;;;;2.46;100.00;100369.03;4950374;29;20128;-75
2021/01/07 02:27:27;;;;;;;10.15;5.70;;;;;;;2.47;100.00;100370.63;4930227;29;20032;-75
2021/01/07 02:29:52;;;;;;;11.63;5.75;;;;;;;2.56;100.00;100368.75;4948853;28;20058;-75
2021/01/07 02:32:18;;;;;;;10.77;6.07;;;;;;;2.60;100.00;100364.41;4915110;29;20092;-75
2021/01/07 02:34:43;;;;;;;12.55;5.95;;;;;;;2.55;100.00;100361.91;4919915;29;20044;-75
2021/01/07 02:37:11;;;;;;;10.07;5.32;;;;;;;2.47;100.00;100359.19;4917721;29;20040;-75
2021/01/07 02:39:37;;;;;;;11.13;5.93;;;;;;;2.44;100.00;100360.59;4918098;29;20115;-75
2021/01/07 02:42:02;;;;;;;9.55;5.25;;;;;;;2.44;100.00;100365.13;4918645;29;20123;-75
2021/01/07 02:44:28;;;;;;;10.32;5.38;;;;;;;2.42;100.00;100354.03;4916623;29;20039;-75
2021/01/07 02:46:54;;;;;;;9.68;5.45;;;;;;;2.38;100.00;100361.81;4917484;29;20055;-75
2021/01/07 02:49:20;;;;;;;11.18;5.50;;;;;;;2.34;100.00;100362.75;4912171;29;20390;-75
2021/01/07 02:51:46;;;;;;;10.10;5.47;;;;;;;2.40;100.00;100358.88;4914098;29;20637;-75
2021/01/07 02:54:12;;;;;;;9.75;5.32;;;;;;;2.52;100.00;100367.03;4914156;29;20036;-76
2021/01/07 02:56:38;;;;;;;11.68;6.00;;;;;;;2.41;100.00;100363.88;4909687;29;20036;-75
2021/01/07 02:59:04;;;;;;;9.98;5.45;;;;;;;2.48;100.00;100360.75;4915363;29;20555;-75
2021/01/07 03:01:30;;;;;;;9.27;5.18;;;;;;;2.49;100.00;100365.00;4917342;29;20028;-75
2021/01/07 03:03:55;;;;;;;9.23;5.13;;;;;;;2.51;100.00;100360.94;4926183;29;20072;-75
2021/01/07 03:06:22;;;;;;;8.80;5.03;;;;;;;2.51;100.00;100357.50;4933953;29;20067;-76
2021/01/07 03:08:48;;;;;;;9.05;4.65;;;;;;;2.39;100.00;100365.25;4914191;29;20032;-75
2021/01/07 03:11:13;;;;;;;10.02;5.00;;;;;;;2.42;100.00;100354.03;4925363;29;20032;-75
2021/01/07 03:13:39;;;;;;;9.57;5.25;;;;;;;2.55;100.00;100359.25;4913785;29;20055;-75
2021/01/07 03:16:05;;;;;;;10.27;5.43;;;;;;;2.51;100.00;100360.16;4914432;29;20043;-75
2021/01/07 03:18:30;;;;;;;8.77;4.85;;;;;;;2.42;100.00;100357.47;4910214;29;20039;-75
2021/01/07 03:20:56;;;;;;;9.93;5.13;;;;;;;2.35;100.00;100359.00;4913561;29;20152;-76
2021/01/07 03:23:21;;;;;;;10.07;5.10;;;;;;;2.40;100.00;100351.66;4908659;29;20222;-76
2021/01/07 03:25:48;;;;;;;10.13;5.18;;;;;;;2.34;100.00;100357.44;4924405;29;20499;-75
2021/01/07 03:28:13;;;;;;;9.18;5.32;;;;;;;2.41;100.00;100352.47;4904420;29;20035;-75
2021/01/07 03:30:39;;;;;;;9.30;4.93;;;;;;;2.44;100.00;100349.19;4913165;29;20043;-75
2021/01/07 03:33:04;;;;;;;8.75;4.80;;;;;;;2.41;100.00;100349.81;4913543;29;20072;-75
2021/01/07 03:35:50;;;;;;;7.95;4.55;;;;;;;2.37;100.00;100352.28;4929786;29;20075;-75
2021/01/07 03:38:16;;;;;;;7.13;4.43;;;;;;;2.43;100.00;100344.97;4899470;29;20067;-75
2021/01/07 03:40:41;;;;;;;8.18;4.60;;;;;;;2.43;100.00;100350.28;4909929;29;20104;-75
2021/01/07 03:43:07;;;;;;;7.95;4.30;;;;;;;2.39;100.00;100346.66;4864572;29;20048;-75
2021/01/07 03:45:32;;;;;;;7.88;4.22;;;;;;;2.51;100.00;100345.00;4910288;29;20576;-76
2021/01/07 03:47:58;;;;;;;7.57;4.40;;;;;;;2.48;100.00;100339.50;4863278;29;20067;-75
2021/01/07 03:50:23;;;;;;;7.03;4.00;;;;;;;2.38;100.00;100345.88;4877295;29;20127;-75
2021/01/07 03:52:49;;;;;;;8.27;3.78;;;;;;;2.39;100.00;100342.16;4910374;29;20044;-75
2021/01/07 03:55:14;;;;;;;7.68;4.40;;;;;;;2.47;100.00;100354.69;4892669;29;20105;-75
2021/01/07 03:57:40;;;;;;;7.85;4.28;;;;;;;2.53;100.00;100342.03;4875635;29;20067;-76
2021/01/07 04:00:26;;;;;;;9.48;4.57;;;;;;;2.46;100.00;100347.78;4891118;29;20109;-75
2021/01/07 04:02:51;;;;;;;7.28;3.88;;;;;;;2.37;100.00;100340.88;4827463;29;20046;-75
2021/01/07 04:05:17;;;;;;;7.50;3.85;;;;;;;2.34;100.00;100342.25;4803068;29;20073;-75
2021/01/07 04:07:42;;;;;;;6.50;3.63;;;;;;;2.44;100.00;100338.56;4805793;29;20061;-75
2021/01/07 04:10:29;;;;;;;6.30;3.92;;;;;;;2.41;100.00;100339.97;4820801;29;20045;-75
2021/01/07 04:12:54;;;;;;;8.40;4.50;;;;;;;2.43;100.00;100339.66;4783974;29;20039;-75
2021/01/07 04:15:20;;;;;;;7.70;3.90;;;;;;;2.41;100.00;100336.50;4786220;29;20534;-75
2021/01/07 04:17:45;;;;;;;7.85;4.15;;;;;;;2.38;100.00;100347.78;4786249;29;20062;-75
2021/01/07 04:20:11;;;;;;;8.63;4.57;;;;;;;2.51;100.00;100338.91;4801037;29;20146;-75
2021/01/07 04:22:40;;;;;;;7.35;4.13;;;;;;;2.48;100.00;100342.16;4801181;29;20043;-75
2021/01/07 04:25:07;;;;;;;9.77;4.10;;;;;;;2.42;100.00;100338.84;4786350;29;20116;-76
2021/01/07 04:27:32;;;;;;;7.00;3.97;;;;;;;2.48;100.00;100339.50;4797435;29;20046;-75
2021/01/07 04:29:58;;;;;;;8.48;4.38;;;;;;;2.53;100.00;100339.38;4786039;29;20115;-75
2021/01/07 04:32:23;;;;;;;7.03;4.05;;;;;;;2.42;100.00;100340.75;4798651;29;20042;-76
2021/01/07 04:34:49;;;;;;;7.20;4.35;;;;;;;2.46;100.00;100334.50;4785640;29;20038;-75
2021/01/07 04:37:15;;;;;;;7.85;4.35;;;;;;;2.43;100.00;100339.66;4790473;29;20046;-76
2021/01/07 04:39:40;;;;;;;6.10;3.80;;;;;;;2.41;100.00;100334.66;4824167;29;20533;-76
2021/01/07 04:42:06;;;;;;;7.75;4.20;;;;;;;2.42;100.00;100340.75;4859101;29;20048;-75
2021/01/07 04:44:31;;;;;;;8.30;4.10;;;;;;;2.52;100.00;100335.94;4856993;29;20045;-75
2021/01/07 04:46:58;;;;;;;7.78;4.38;;;;;;;2.49;100.00;100333.09;4869061;29;20076;-76
2021/01/07 04:49:25;;;;;;;8.15;4.20;;;;;;;2.44;100.00;100335.91;4885851;29;20054;-75
2021/01/07 04:51:51;;;;;;;8.75;4.38;;;;;;;2.41;100.00;100336.50;4907485;29;20036;-75
2021/01/07 04:54:17;;;;;;;8.82;4.88;;;;;;;2.41;100.00;100336.50;4921943;29;20465;-76
2021/01/07 04:56:43;;;;;;;7.95;4.53;;;;;;;2.49;100.00;100336.56;4912687;29;20401;-76
2021/01/07 04:59:08;;;;;;;10.02;5.18;;;;;;;2.52;100.00;100329.81;4895978;29;20031;-75
2021/01/07 05:01:34;;;;;;;7.20;4.20;;;;;;;2.47;100.00;100332.63;4922052;29;20032;-76
2021/01/07 05:04:00;;;;;;;7.30;4.22;;;;;;;2.50;100.00;100338.09;4922907;29;20036;-75
2021/01/07 05:06:26;;;;;;;9.52;4.97;;;;;;;2.52;100.00;100333.25;4921814;29;20156;-76
2021/01/07 05:09:02;;;;;;;7.55;4.38;;;;;;;2.49;100.00;100328.59;4921528;29;20118;-76
2021/01/07 05:11:30;;;;;;;9.20;4.57;;;;;;;2.45;100.00;100342.78;4912291;29;20040;-76
2021/01/07 05:14:03;;;;;;;9.52;4.47;;;;;;;2.52;100.00;100337.78;4899631;29;20031;-75
2021/01/07 05:16:29;;;;;;;8.65;4.75;;;;;;;2.46;100.00;100331.84;4909155;29;20119;-75
2021/01/07 05:18:56;;;;;;;9.43;4.70;;;;;;;2.46;100.00;100336.38;4913682;29;20032;-76
2021/01/07 05:21:21;;;;;;;8.95;4.78;;;;;;;2.61;100.00;100327.97;4909733;29;20033;-75
2021/01/07 05:23:48;;;;;;;9.98;4.95;;;;;;;2.54;100.00;100338.25;4943353;29;20493;-76
2021/01/07 05:26:17;;;;;;;9.00;4.50;;;;;;;2.55;100.00;100337.97;4891892;29;20040;-75
2021/01/07 05:28:48;;;;;;;9.20;4.97;;;;;;;2.50;100.00;100337.31;4910285;29;20036;-76
2021/01/07 05:31:21;;;;;;;9.60;4.70;;;;;;;2.43;100.00;100331.69;4910337;29;20091;-75
2021/01/07 05:33:47;;;;;;;9.02;4.45;;;;;;;2.47;100.00;100341.41;4910483;29;20409;-75
2021/01/07 05:36:27;;;;;;;8.23;4.43;;;;;;;2.42;100.00;100336.19;4905824;29;20035;-75
2021/01/07 05:38:55;;;;;;;8.23;4.70;;;;;;;2.50;100.00;100343.41;4919892;29;20027;-76
2021/01/07 05:41:23;;;;;;;9.10;4.47;;;;;;;2.52;100.00;100329.81;4901076;29;20497;-76
2021/01/07 05:44:00;;;;;;;9.63;5.10;;;;;;;2.44;100.00;100336.69;4907817;29;20651;-76
2021/01/07 05:46:26;;;;;;;8.68;4.38;;;;;;;2.40;100.00;100332.31;4890696;29;20032;-76
2021/01/07 05:48:56;;;;;;;7.88;4.30;;;;;;;2.52;100.00;100329.81;4905945;29;20828;-75
2021/01/07 05:51:27;;;;;;;9.38;4.57;;;;;;;2.42;100.00;100335.44;4901986;29;20128;-75
2021/01/07 05:53:54;;;;;;;7.65;4.13;;;;;;;2.44;100.00;100338.56;4905187;29;20565;-75
2021/01/07 05:56:21;;;;;;;7.68;4.35;;;;;;;2.54;100.00;100333.75;4927377;29;20032;-75
2021/01/07 05:58:47;;;;;;;10.95;4.45;;;;;;;2.53;100.00;100328.75;4899634;29;20036;-75
2021/01/07 06:01:15;;;;;;;8.45;4.32;;;;;;;2.46;100.00;100342.47;4909394;29;20043;-75
2021/01/07 06:03:54;;;;;;;7.60;4.18;;;;;;;2.44;100.00;100334.03;4898654;29;20050;-75
2021/01/07 06:06:23;;;;;;;10.45;4.68;;;;;;;2.52;100.00;100335.13;4919408;29;20086;-75
2021/01/07 06:08:51;;;;;;;8.68;4.30;;;;;;;2.49;100.00;100335.75;4939814;29;20040;-75
2021/01/07 06:11:18;;;;;;;7.53;4.10;;;;;;;2.39;100.00;100336.03;4907429;29;20040;-75
2021/01/07 06:13:46;;;;;;;8.38;4.45;;;;;;;2.42;100.00;100335.44;4913216;29;20119;-76
2021/01/07 06:16:17;;;;;;;10.90;4.82;;;;;;;2.32;100.00;100338.38;4908651;29;20024;-75
2021/01/07 06:18:43;;;;;;;8.30;4.22;;;;;;;2.43;100.00;100329.03;4910760;29;20055;-75
2021/01/07 06:21:10;;;;;;;9.15;4.03;;;;;;;2.36;100.00;100331.34;4909739;29;20127;-75
2021/01/07 06:23:43;;;;;;;8.23;4.57;;;;;;;2.34;100.00;100328.22;4913733;29;20615;-75
2021/01/07 06:26:20;;;;;;;8.30;4.70;;;;;;;2.32;100.00;100333.06;4914217;29;20029;-75
2021/01/07 06:28:50;;;;;;;8.48;4.65;;;;;;;2.33;100.00;100331.97;4912453;29;20512;-75
2021/01/07 06:31:16;;;;;;;7.90;4.28;;;;;;;2.43;100.00;100337.00;4898302;29;20091;-75
2021/01/07 06:33:48;;;;;;;7.25;3.75;;;;;;;2.34;100.00;100330.88;4911429;29;20036;-75
2021/01/07 06:36:16;;;;;;;9.40;4.22;;;;;;;2.28;100.00;100332.91;4907601;29;20135;-76
2021/01/07 06:38:52;;;;;;;8.48;4.32;;;;;;;2.19;100.00;100340.03;4940479;29;20040;-76
2021/01/07 06:41:20;;;;;;;9.40;4.78;;;;;;;2.24;100.00;100337.25;4926674;29;20115;-75
2021/01/07 06:43:47;;;;;;;9.80;4.60;;;;;;;2.28;100.00;100329.44;4921701;29;20473;-75
2021/01/07 06:46:43;;;;;;;7.18;4.05;;;;;;;2.30;100.00;100338.69;4903708;29;20060;-75
2021/01/07 06:49:21;;;;;;;10.20;5.30;;;;;;;2.42;100.00;100341.50;4912062;29;20036;-75
2021/01/07 06:52:05;;;;;;;9.38;5.07;;;;;;;2.31;100.00;100344.75;4925320;29;20032;-75
2021/01/07 06:54:42;;;;;;;12.48;5.10;;;;;;;2.36;100.00;100337.44;4915723;29;20179;-76
2021/01/07 06:57:16;;;;;;;7.28;4.32;;;;;;;2.41;100.00;100339.97;4943861;29;20043;-76
2021/01/07 07:00:00;;;;;;;8.10;5.10;;;;;;;2.27;100.00;100344.59;4914762;29;20039;-76
2021/01/07 07:02:27;;;;;;;8.27;4.55;;;;;;;2.30;100.00;100343.22;4910785;29;20071;-75
2021/01/07 07:05:04;;;;;;;8.88;4.53;;;;;;;2.40;100.00;100341.03;4915175;29;20032;-76
2021/01/07 07:07:39;;;;;;;10.07;5.00;;;;;;;2.33;100.00;100340.72;4895241;29;20139;-75
2021/01/07 07:10:17;;;;;;;9.00;5.00;;;;;;;2.34;100.00;100354.78;4904263;29;20058;-75
2021/01/07 07:12:49;;;;;;;8.70;4.88;;;;;;;2.28;100.00;100350.69;4909730;29;20079;-75
2021/01/07 07:15:35;;;;;;;8.75;5.22;;;;;;;2.21;100.00;100350.34;4896847;29;20036;-75
2021/01/07 07:18:01;;;;;;;10.65;5.70;;;;;;;2.30;100.00;100351.97;4896017;29;20056;-75
2021/01/07 07:20:27;;;;;;;10.35;5.30;;;;;;;2.36;100.00;100360.56;4894581;29;20092;-76
2021/01/07 07:22:53;;;;;;;11.77;5.68;;;;;;;2.39;100.00;100358.09;4878072;29;20051;-76
2021/01/07 07:25:26;;;;;;;9.90;5.72;;;;;;;2.36;100.00;100364.00;4881628;29;20040;-76
2021/01/07 07:27:54;;;;;;;12.60;5.75;;;;;;;2.47;100.00;100353.88;4891586;29;20059;-76
2021/01/07 07:30:27;;;;;;;10.45;5.78;;;;;;;2.42;100.00;100364.66;4895032;29;20429;-75
2021/01/07 07:32:56;;;;;;;10.98;5.80;;;;;;;2.49;100.00;100362.34;4897335;29;20106;-76
2021/01/07 07:35:26;;;;;;;9.75;5.78;;;;;;;2.44;100.00;100365.13;4878227;29;20048;-76
2021/01/07 07:37:53;;;;;;;11.45;6.38;;;;;;;2.29;100.00;100368.19;4906903;29;20127;-76
2021/01/07 07:40:37;;;;;;;9.80;6.13;;;;;;;2.39;100.00;100363.41;4891598;29;20040;-76
2021/01/07 07:43:05;;;;;;;11.32;6.40;;;;;;;2.33;100.00;100369.13;4903866;29;20044;-76
2021/01/07 07:45:33;;;;;;;11.82;6.38;;;;;;;2.41;100.00;100373.72;4900954;29;20036;-76
2021/01/07 07:48:21;;;;;;;13.50;7.32;;;;;;;2.49;100.00;100373.75;4894941;29;20150;-76
2021/01/07 07:50:46;;;;;;;14.57;6.63;;;;;;;2.49;100.00;100373.75;4829131;29;20589;-76
2021/01/07 07:53:14;;;;;;;12.20;6.22;;;;;;;2.40;100.00;100380.13;4837612;29;20537;-76
2021/01/07 07:55:42;;;;;;;13.82;7.47;;;;;;;2.34;100.00;100379.44;4840897;29;20057;-76
2021/01/07 07:58:14;;;;;;;13.65;7.57;;;;;;;2.40;100.00;100390.75;4856588;29;20049;-76
2021/01/07 08:00:52;;;;;;;14.27;7.63;;;;;;;2.44;100.00;100386.41;4850223;29;20495;-76
2021/01/07 08:03:31;;;;;;;13.52;7.15;;;;;;;2.41;100.00;100390.44;4871687;29;20069;-76
2021/01/07 08:05:59;;;;;;;15.70;7.70;;;;;;;2.40;100.00;100386.19;4848013;29;20048;-76
2021/01/07 08:08:26;;;;;;;15.80;8.18;;;;;;;2.50;100.00;100395.78;4831248;29;20045;-77
2021/01/07 08:10:55;;;;;;;14.52;7.82;;;;;;;2.45;100.00;100398.56;4829932;29;20034;-77
2021/01/07 08:13:30;;;;;;;17.65;8.80;;;;;;;2.39;100.00;100399.78;4851071;29;20041;-76
2021/01/07 08:15:58;;;;;;;17.65;8.05;;;;;;;2.36;100.00;100403.06;4867886;29;20053;-76
2021/01/07 08:18:25;;;;;;;15.90;8.23;;;;;;;2.41;100.00;100408.25;4839719;29;20045;-77
2021/01/07 08:20:53;;;;;;;17.13;8.27;;;;;;;2.40;100.00;100402.13;4852915;29;20049;-77
2021/01/07 08:23:20;;;;;;;16.75;8.48;;;;;;;2.51;100.00;100403.47;4852627;29;20439;-77
2021/01/07 08:25:48;;;;;;;16.70;8.18;;;;;;;2.48;100.00;100404.06;4856082;29;20033;-77
2021/01/07 08:28:43;;;;;;;15.25;7.93;;;;;;;2.26;100.00;100406.00;4917669;29;20056;-76
2021/01/07 08:31:29;;;;;;;15.85;7.90;;;;;;;2.33;100.00;100408.97;4895480;29;20039;-77
2021/01/07 08:33:56;;;;;;;15.65;7.40;;;;;;;2.39;100.00;100405.09;4909323;29;20040;-76
2021/01/07 08:36:22;;;;;;;17.73;8.23;;;;;;;2.40;100.00;100404.78;4896133;29;20111;-76
2021/01/07 08:38:53;;;;;;;17.05;7.20;;;;;;;2.48;100.00;100403.25;4939123;29;20143;-76
2021/01/07 08:41:21;;;;;;;15.45;7.20;;;;;;;2.54;100.00;100413.47;4926401;29;20028;-76
2021/01/07 08:43:50;;;;;;;14.52;7.32;;;;;;;2.50;100.00;100409.06;4908769;29;20115;-76
2021/01/07 08:46:21;;;;;;;13.68;7.03;;;;;;;2.47;100.00;100409.69;4908365;29;20032;-76
2021/01/07 08:49:00;;;;;;;16.85;7.72;;;;;;;2.50;100.00;100401.09;4909597;29;20958;-76
2021/01/07 08:51:26;;;;;;;17.45;8.35;;;;;;;2.44;100.00;100399.69;4911308;29;20063;-76
2021/01/07 08:53:56;;;;;;;16.73;8.50;;;;;;;2.45;100.00;100398.56;4910978;29;20024;-76
2021/01/07 08:56:59;;;;;;;16.25;8.18;;;;;;;2.50;100.00;100403.75;4927248;29;20032;-77
2021/01/07 08:59:39;;;;;;;18.35;9.02;;;;;;;2.48;100.00;100398.75;4903269;29;20052;-76
2021/01/07 09:02:08;;;;;;;21.10;9.60;;;;;;;2.51;100.00;100395.47;4917011;29;20052;-77
2021/01/07 09:04:38;;;;;;;21.30;9.82;;;;;;;2.59;100.00;100391.28;4905665;29;20028;-77
2021/01/07 09:07:19;;;;;;;23.77;11.57;;;;;;;2.57;100.00;100401.44;4934995;29;20042;-76
2021/01/07 09:09:52;;;;;;;25.60;11.47;;;;;;;2.60;100.00;100388.31;4932725;29;20048;-77
2021/01/07 09:12:28;;;;;;;29.05;11.68;;;;;;;2.59;100.00;100393.94;4894310;29;20296;-76
2021/01/07 09:14:57;;;;;;;28.58;13.10;;;;;;;2.61;100.00;100399.72;4892711;29;20032;-77
2021/01/07 09:17:25;;;;;;;31.27;12.80;;;;;;;2.58;100.00;100406.44;4934847;29;20035;-76
2021/01/07 09:19:51;;;;;;;30.30;12.73;;;;;;;2.61;100.00;100400.50;4929679;29;20130;-76
2021/01/07 09:22:22;;;;;;;30.58;12.68;;;;;;;2.65;100.00;100411.31;4902384;29;20791;-77
2021/01/07 09:24:48;;;;;;;29.05;11.90;;;;;;;2.65;100.00;100403.34;4913686;29;20048;-76
2021/01/07 09:27:16;;;;;;;28.13;12.15;;;;;;;2.73;100.00;100403.34;4906833;29;20099;-76
2021/01/07 09:29:42;;;;;;;30.30;12.95;;;;;;;2.73;100.00;100402.56;4921077;29;20040;-77
2021/01/07 09:32:09;;;;;;;31.88;12.00;;;;;;;2.73;100.00;100410.53;4907267;29;20032;-76
2021/01/07 09:34:35;;;;;;;31.75;13.10;;;;;;;2.69;100.00;100405.06;4907871;29;20481;-77
2021/01/07 09:37:16;;;;;;;29.55;12.27;;;;;;;2.65;100.00;100406.00;4909484;29;20115;-76
2021/01/07 09:39:43;;;;;;;25.73;12.07;;;;;;;2.66;100.00;100403.03;4904648;29;20036;-76
2021/01/07 09:42:10;;;;;;;24.48;10.50;;;;;;;2.67;100.00;100407.25;4906450;29;20040;-76
2021/01/07 09:44:35;;;;;;;27.38;12.10;;;;;;;2.78;100.00;100397.13;4911609;29;20049;-76
2021/01/07 09:47:02;;;;;;;25.75;11.45;;;;;;;2.90;100.00;100405.28;4892992;29;20044;-76
2021/01/07 09:49:28;;;;;;;30.13;12.13;;;;;;;2.88;100.00;100406.69;4901964;29;20043;-76
2021/01/07 09:51:55;;;;;;;25.77;11.50;;;;;;;2.82;100.00;100405.25;4905561;29;20040;-76
2021/01/07 09:54:23;;;;;;;25.92;11.68;;;;;;;2.80;100.00;100405.56;4906927;29;20032;-76
2021/01/07 09:56:53;;;;;;;24.25;11.38;;;;;;;2.87;100.00;100397.91;4897475;29;20131;-76
2021/01/07 09:59:20;;;;;;;23.77;10.73;;;;;;;2.74;100.00;100393.50;4912801;29;20686;-77
2021/01/07 10:01:46;;;;;;;26.05;11.18;;;;;;;2.74;100.00;100402.28;4910321;29;20036;-76
2021/01/07 10:04:13;;;;;;;22.80;11.07;;;;;;;2.85;100.00;100397.44;4912993;29;20552;-76
2021/01/07 10:06:40;;;;;;;24.15;10.00;;;;;;;2.90;100.00;100401.84;4910237;29;20036;-77
2021/01/07 10:09:06;;;;;;;21.60;10.40;;;;;;;3.05;100.00;100399.53;4910175;29;20040;-76
2021/01/07 10:11:31;;;;;;;23.55;10.20;;;;;;;2.96;100.00;100390.72;4911130;29;20481;-76
2021/01/07 10:13:57;;;;;;;25.10;10.68;;;;;;;2.98;100.00;100395.75;4942356;28;20036;-76
2021/01/07 10:16:22;;;;;;;27.38;11.07;;;;;;;2.95;100.00;100396.38;4926571;29;20496;-76
2021/01/07 10:18:48;;;;;;;25.27;10.40;;;;;;;2.94;100.00;100400.94;4907581;29;20063;-77
2021/01/07 10:21:15;;;;;;;23.42;10.02;;;;;;;2.91;100.00;100406.06;4913765;29;20047;-77
2021/01/07 10:23:41;;;;;;;26.17;10.82;;;;;;;3.04;100.00;100395.28;4908493;29;20044;-77
2021/01/07 10:26:09;;;;;;;25.55;10.88;;;;;;;2.78;100.00;100394.47;4939578;29;20111;-76
2021/01/07 10:28:36;;;;;;;27.95;10.73;;;;;;;2.78;100.00;100399.78;4924478;29;20039;-76
2021/01/07 10:31:01;;;;;;;27.33;11.40;;;;;;;2.75;100.00;100390.53;4910978;29;20040;-77
2021/01/07 10:33:31;;;;;;;22.02;10.20;;;;;;;2.94;100.00;100390.28;4926718;29;20036;-76
2021/01/07 10:35:57;;;;;;;23.08;10.10;;;;;;;2.85;100.00;100394.78;4923725;29;20044;-77
2021/01/07 10:38:23;;;;;;;22.67;10.00;;;;;;;2.96;100.00;100393.41;4912384;29;20462;-77
2021/01/07 10:40:51;;;;;;;26.65;10.68;;;;;;;2.97;100.00;100394.97;4906356;29;20087;-77
2021/01/07 10:43:20;;;;;;;26.42;10.63;;;;;;;2.96;100.00;100398.72;4927373;29;20135;-77
2021/01/07 10:45:50;;;;;;;23.13;10.43;;;;;;;2.91;100.00;100396.22;4937487;29;20033;-77
2021/01/07 10:48:19;;;;;;;21.65;10.38;;;;;;;2.99;100.00;100394.66;4937427;29;20047;-76
2021/01/07 10:50:46;;;;;;;21.85;9.82;;;;;;;2.94;100.00;100395.59;4911409;29;20035;-76
2021/01/07 10:53:45;;;;;;;21.92;10.07;;;;;;;2.93;100.00;100386.03;4908957;29;20111;-76
2021/01/07 10:56:24;;;;;;;21.92;9.95;;;;;;;2.90;100.00;100388.56;4922891;29;20041;-76
2021/01/07 10:59:11;;;;;;;23.40;9.57;;;;;;;2.99;100.00;100386.69;4914739;29;20041;-77
2021/01/07 11:01:42;;;;;;;20.63;9.82;;;;;;;2.98;100.00;100385.13;4913316;29;20040;-77
2021/01/07 11:04:14;;;;;;;;;;;;;;;3.01;100.00;100385.28;4911466;29;20044;-77
2021/01/07 11:06:50;;;;;;;20.40;9.55;;;;;;;3.15;100.00;100379.81;4930082;29;19978;-76
2021/01/07 11:09:21;;;;;;;19.73;9.65;;;;;;;3.20;100.00;100377.00;4901726;29;20068;-77
2021/01/07 11:11:52;;;;;;;23.50;10.05;;;;;;;3.18;100.00;100369.34;4910334;29;20122;-77
2021/01/07 11:14:38;;;;;;;23.08;10.20;;;;;;;3.05;100.00;100370.28;4912028;29;20040;-77
2021/01/07 11:17:10;;;;;;;25.20;9.90;;;;;;;3.06;100.00;100366.50;4907770;29;20409;-77
2021/01/07 11:19:36;;;;;;;22.42;10.40;;;;;;;3.05;100.00;100364.97;4924695;29;20075;-77
2021/01/07 11:22:11;;;;;;;23.40;10.32;;;;;;;3.03;100.00;100369.00;4913761;29;20092;-77
2021/01/07 11:24:42;;;;;;;26.67;10.43;;;;;;;2.99;100.00;100358.22;4941074;29;20566;-77
2021/01/07 11:27:11;;;;;;;19.58;9.68;;;;;;;3.24;100.00;100359.31;4940040;29;20032;-77